Overview Statistics Trail Chart Weather Telemetry Raw packets
 

This is the latest recevied weather packets stored in our database for station/object OK1FET-5. If no packets are shown the sender has not sent any weather packets the latest 10 day(s).

<< 50 51 52 53 54 >>
Time Temp. Humidity Pressure Rain* Wind** Luminosity Snow
1787759155 22.22° C 54% 1021.1 hPa - - - -
1787758559 22.22° C 54% 1021 hPa - - - -
1787757963 22.22° C 53% 1021 hPa - - - -
1787756772 21.11° C 56% 1021.1 hPa - - - -
1787756176 20.56° C 56% 1021.1 hPa - - - -
1787755580 20.56° C 56% 1021.1 hPa - - - -
1787754984 20.56° C 56% 1021.1 hPa - - - -
1787754389 20.56° C 56% 1021.3 hPa - - - -
1787753197 21.11° C 56% 1021.3 hPa - - - -
1787752601 21.11° C 56% 1021.4 hPa - - - -
1787752006 21.67° C 56% 1021.2 hPa - - - -
1787751410 21.67° C 55% 1021.2 hPa - - - -
1787750814 22.22° C 53% 1021.2 hPa - - - -
1787750218 22.78° C 53% 1021.2 hPa - - - -
1787749623 22.22° C 54% 1021.3 hPa - - - -
1787749027 21.67° C 56% 1021.4 hPa - - - -
1787748431 21.67° C 55% 1021.3 hPa - - - -
1787747835 23.33° C 51% 1021.2 hPa - - - -
1787747239 24.44° C 51% 1021.2 hPa - - - -
1787746644 23.33° C 54% 1021.3 hPa - - - -
1787746048 21.67° C 58% 1021.3 hPa - - - -
1787745452 21.67° C 59% 1021.5 hPa - - - -
1787744856 21.11° C 60% 1021.6 hPa - - - -
1787744261 21.11° C 59% 1021.5 hPa - - - -
1787743665 21.11° C 59% 1021.6 hPa - - - -

* Rain since midnight (hover to see other rain measurements)
** Current wind speed in m/s (hover to see current wind gust speed)